createdAt,value
2023-05-12T00:01:43.406Z,98233.03
2023-05-12T00:04:09.892Z,98233.38
2023-05-12T00:06:36.475Z,98234.97
2023-05-12T00:09:02.837Z,98231.91
2023-05-12T00:11:29.208Z,98224.31
2023-05-12T00:13:55.615Z,98218.19
2023-05-12T00:16:22.013Z,98230.50
2023-05-12T00:18:48.432Z,98230.53
2023-05-12T00:21:14.810Z,98230.84
2023-05-12T00:23:42.280Z,98232.22
2023-05-12T00:26:08.590Z,98232.25
2023-05-12T00:28:34.944Z,98240.47
2023-05-12T00:31:05.654Z,98237.81
2023-05-12T00:33:32.097Z,98250.03
2023-05-12T00:35:58.436Z,98237.88
2023-05-12T00:38:24.871Z,98232.75
2023-05-12T00:40:51.215Z,98235.09
2023-05-12T00:43:17.673Z,98238.53
2023-05-12T00:45:44.423Z,98233.59
2023-05-12T00:48:10.984Z,98246.50
2023-05-12T00:50:37.570Z,98247.66
2023-05-12T00:53:04.109Z,98234.75
2023-05-12T00:55:30.588Z,98241.00
2023-05-12T00:57:57.135Z,98235.78
2023-05-12T01:00:23.494Z,98237.50
2023-05-12T01:02:49.916Z,98244.56
2023-05-12T01:05:16.373Z,98234.16
2023-05-12T01:07:42.701Z,98239.78
2023-05-12T01:10:29.376Z,98236.66
2023-05-12T01:12:55.970Z,98238.06
2023-05-12T01:15:22.459Z,98235.22
2023-05-12T01:18:00.991Z,98228.34
2023-05-12T01:20:28.553Z,98236.13
2023-05-12T01:22:55.453Z,98230.97
2023-05-12T01:25:23.591Z,98235.63
2023-05-12T01:27:50.374Z,98233.13
2023-05-12T01:30:20.169Z,98233.41
2023-05-12T01:32:46.776Z,98237.75
2023-05-12T01:35:13.119Z,98226.38
2023-05-12T01:37:39.455Z,98238.69
2023-05-12T01:40:06.239Z,98236.47
2023-05-12T01:42:32.685Z,98232.28
2023-05-12T01:44:59.066Z,98226.59
2023-05-12T01:47:25.448Z,98230.97
2023-05-12T01:49:51.879Z,98221.91
2023-05-12T01:52:18.254Z,98236.75
2023-05-12T01:54:44.593Z,98243.59
2023-05-12T01:57:10.930Z,98238.44
2023-05-12T01:59:37.267Z,98235.44
2023-05-12T02:02:03.857Z,98241.53
2023-05-12T02:04:30.226Z,98227.56
2023-05-12T02:06:56.556Z,98241.00
2023-05-12T02:09:23.929Z,98241.78
2023-05-12T02:11:50.257Z,98238.69
2023-05-12T02:14:16.599Z,98228.31
2023-05-12T02:16:43.585Z,98237.25
2023-05-12T02:19:10.169Z,98238.28
2023-05-12T02:21:36.585Z,98236.00
2023-05-12T02:24:02.917Z,98238.25
2023-05-12T02:26:29.267Z,98234.28
2023-05-12T02:28:55.617Z,98238.25
2023-05-12T02:31:21.965Z,98233.97
2023-05-12T02:33:48.294Z,98231.84
2023-05-12T02:36:15.737Z,98240.06
2023-05-12T02:38:42.139Z,98246.47
2023-05-12T02:41:08.449Z,98245.25
2023-05-12T02:43:34.781Z,98224.22
2023-05-12T02:46:01.146Z,98232.72
2023-05-12T02:48:27.558Z,98235.09
2023-05-12T02:50:53.921Z,98234.47
2023-05-12T02:53:20.298Z,98236.38
2023-05-12T02:55:46.663Z,98246.22
2023-05-12T02:58:13.057Z,98230.84
2023-05-12T03:00:39.376Z,98251.50
2023-05-12T03:03:05.833Z,98240.44
2023-05-12T03:05:32.225Z,98257.78
2023-05-12T03:07:58.587Z,98246.09
2023-05-12T03:10:25.124Z,98251.53
2023-05-12T03:12:51.473Z,98246.22
2023-05-12T03:15:17.785Z,98246.03
2023-05-12T03:17:45.223Z,98238.63
2023-05-12T03:20:11.730Z,98244.63
2023-05-12T03:22:38.195Z,98252.88
2023-05-12T03:25:04.954Z,98247.63
2023-05-12T03:27:31.958Z,98231.56
2023-05-12T03:29:58.599Z,98233.31
2023-05-12T03:32:24.981Z,98241.19
2023-05-12T03:34:51.321Z,98242.47
2023-05-12T03:37:17.657Z,98236.41
2023-05-12T03:39:44.006Z,98233.50
2023-05-12T03:42:10.389Z,98243.97
2023-05-12T03:44:36.716Z,98235.78
2023-05-12T03:47:03.193Z,98243.91
2023-05-12T03:49:29.592Z,98248.44
2023-05-12T03:51:56.010Z,98249.13
2023-05-12T03:54:22.388Z,98245.91
2023-05-12T03:56:48.713Z,98233.91
2023-05-12T03:59:15.052Z,98242.81
2023-05-12T04:01:41.434Z,98242.44
2023-05-12T04:04:07.799Z,98246.13
2023-05-12T04:06:35.250Z,98246.41
2023-05-12T04:09:01.576Z,98238.69
2023-05-12T04:11:27.932Z,98252.66
2023-05-12T04:13:54.326Z,98248.81
2023-05-12T04:16:20.693Z,98247.84
2023-05-12T04:18:47.130Z,98241.66
2023-05-12T04:21:13.481Z,98243.75
2023-05-12T04:23:39.822Z,98245.41
2023-05-12T04:26:06.161Z,98241.75
2023-05-12T04:28:32.503Z,98250.44
2023-05-12T04:31:05.225Z,98244.28
2023-05-12T04:33:31.563Z,98241.50
2023-05-12T04:35:58.145Z,98236.94
2023-05-12T04:38:24.573Z,98252.19
2023-05-12T04:40:50.952Z,98254.34
2023-05-12T04:45:46.542Z,98256.25
2023-05-12T04:48:12.883Z,98258.44
2023-05-12T04:50:39.217Z,98261.66
2023-05-12T04:53:05.561Z,98258.63
2023-05-12T04:55:31.884Z,98242.47
2023-05-12T04:57:58.213Z,98264.31
2023-05-12T05:00:24.624Z,98257.59
2023-05-12T05:02:51.011Z,98260.88
2023-05-12T05:05:17.390Z,98258.56
2023-05-12T05:07:43.714Z,98258.75
2023-05-12T05:10:10.292Z,98273.66
2023-05-12T05:12:36.618Z,98268.03
2023-05-12T05:15:03.083Z,98258.16
2023-05-12T05:17:29.507Z,98273.81
2023-05-12T05:19:59.012Z,98269.84
2023-05-12T05:22:25.852Z,98270.75
2023-05-12T05:24:52.294Z,98273.00
2023-05-12T05:27:18.730Z,98276.38
2023-05-12T05:29:45.080Z,98275.78
2023-05-12T05:32:11.416Z,98282.03
2023-05-12T05:34:37.869Z,98284.38
2023-05-12T05:37:04.319Z,98287.84
2023-05-12T05:39:30.714Z,98275.00
2023-05-12T05:41:57.429Z,98278.09
2023-05-12T05:44:24.784Z,98287.16
2023-05-12T05:46:51.200Z,98284.69
2023-05-12T05:49:17.630Z,98286.66
2023-05-12T05:51:43.989Z,98286.78
2023-05-12T05:54:10.351Z,98278.41
2023-05-12T05:56:36.682Z,98291.47
2023-05-12T05:59:03.023Z,98283.16
2023-05-12T06:01:29.381Z,98287.16
2023-05-12T06:03:55.762Z,98281.81
2023-05-12T06:06:22.177Z,98285.00
2023-05-12T06:08:48.521Z,98293.00
2023-05-12T06:11:15.879Z,98286.59
2023-05-12T06:13:43.501Z,98287.34
2023-05-12T06:16:09.842Z,98295.81
2023-05-12T06:18:36.220Z,98285.97
2023-05-12T06:21:02.591Z,98294.41
2023-05-12T06:23:28.908Z,98295.97
2023-05-12T06:25:55.358Z,98283.84
2023-05-12T06:28:21.682Z,98303.69
2023-05-12T06:30:48.025Z,98293.03
2023-05-12T06:33:14.425Z,98303.78
2023-05-12T06:35:40.766Z,98300.75
2023-05-12T06:38:07.176Z,98304.16
2023-05-12T06:40:34.553Z,98297.69
2023-05-12T06:43:00.895Z,98310.63
2023-05-12T06:45:27.255Z,98309.16
2023-05-12T06:47:53.647Z,98318.34
2023-05-12T06:50:20.011Z,98312.63
2023-05-12T06:52:46.375Z,98311.44
2023-05-12T06:55:13.876Z,98311.09
2023-05-12T06:57:40.214Z,98303.06
2023-05-12T07:00:08.240Z,98309.19
2023-05-12T07:02:34.613Z,98299.28
2023-05-12T07:05:00.979Z,98320.28
2023-05-12T07:07:27.356Z,98317.63
2023-05-12T07:09:53.696Z,98308.50
2023-05-12T07:12:20.080Z,98308.09
2023-05-12T07:14:47.418Z,98296.28
2023-05-12T07:17:13.750Z,98319.16
2023-05-12T07:19:40.087Z,98300.81
2023-05-12T07:22:06.445Z,98308.06
2023-05-12T07:24:32.834Z,98301.50
2023-05-12T07:26:59.216Z,98312.56
2023-05-12T07:29:25.536Z,98309.88
2023-05-12T07:31:52.066Z,98315.56
2023-05-12T07:34:18.551Z,98311.34
2023-05-12T07:36:45.061Z,98310.91
2023-05-12T07:39:11.388Z,98308.22
2023-05-12T07:41:37.823Z,98309.31
2023-05-12T07:44:04.157Z,98306.63
2023-05-12T07:46:30.578Z,98303.88
2023-05-12T07:48:56.946Z,98311.16
2023-05-12T07:51:23.506Z,98308.34
2023-05-12T07:53:49.838Z,98307.16
2023-05-12T07:56:16.179Z,98311.75
2023-05-12T07:58:42.528Z,98315.81
2023-05-12T08:01:08.984Z,98307.38
2023-05-12T08:03:35.448Z,98312.97
2023-05-12T08:06:01.918Z,98315.28
2023-05-12T08:08:28.267Z,98314.19
2023-05-12T08:10:54.595Z,98314.06
2023-05-12T08:13:20.940Z,98312.31
2023-05-12T08:15:49.081Z,98319.06
2023-05-12T08:18:16.561Z,98313.69
2023-05-12T08:20:42.915Z,98309.22
2023-05-12T08:23:09.290Z,98316.50
2023-05-12T08:25:35.644Z,98318.63
2023-05-12T08:28:02.133Z,98325.53
2023-05-12T08:30:29.563Z,98326.66
2023-05-12T08:32:55.929Z,98321.47
2023-05-12T08:35:24.540Z,98324.78
2023-05-12T08:37:51.248Z,98326.28
2023-05-12T08:40:21.704Z,98325.38
2023-05-12T08:43:13.890Z,98339.38
2023-05-12T08:45:40.405Z,98334.81
2023-05-12T08:48:09.513Z,98328.50
2023-05-12T08:50:36.524Z,98328.38
2023-05-12T08:53:04.390Z,98327.22
2023-05-12T08:55:33.726Z,98329.75
2023-05-12T08:58:02.854Z,98326.28
2023-05-12T09:00:29.318Z,98331.81
2023-05-12T09:02:56.131Z,98318.88
2023-05-12T09:05:23.337Z,98324.94
2023-05-12T09:07:50.145Z,98318.72
2023-05-12T09:10:29.844Z,98322.09
2023-05-12T09:13:23.713Z,98321.47
2023-05-12T09:15:51.053Z,98326.16
2023-05-12T09:18:17.462Z,98315.22
2023-05-12T09:20:43.817Z,98322.94
2023-05-12T09:23:18.283Z,98313.63
2023-05-12T09:25:44.954Z,98302.59
2023-05-12T09:28:11.366Z,98316.44
2023-05-12T09:30:37.706Z,98321.16
2023-05-12T09:33:09.066Z,98306.06
2023-05-12T09:35:40.027Z,98323.94
2023-05-12T09:38:10.074Z,98317.81
2023-05-12T09:40:36.605Z,98302.00
2023-05-12T09:43:05.155Z,98314.53
2023-05-12T09:45:38.179Z,98320.47
2023-05-12T09:48:12.316Z,98316.28
2023-05-12T09:50:51.575Z,98321.06
2023-05-12T09:53:18.772Z,98318.69
2023-05-12T09:55:46.285Z,98315.53
2023-05-12T09:58:15.103Z,98301.25
2023-05-12T10:00:59.127Z,98322.28
2023-05-12T10:03:29.488Z,98320.22
2023-05-12T10:06:00.837Z,98318.59
2023-05-12T10:08:30.406Z,98314.69
2023-05-12T10:10:59.697Z,98316.50
2023-05-12T10:13:26.209Z,98322.78
2023-05-12T10:15:55.532Z,98312.88
2023-05-12T10:18:21.956Z,98316.94
2023-05-12T10:20:48.792Z,98322.69
2023-05-12T10:23:17.536Z,98321.97
2023-05-12T10:25:44.222Z,98324.50
2023-05-12T10:28:11.135Z,98323.75
2023-05-12T10:30:39.012Z,98322.72
2023-05-12T10:33:05.546Z,98317.13
2023-05-12T10:35:33.542Z,98312.13
2023-05-12T10:38:07.395Z,98325.63
2023-05-12T10:40:33.985Z,98312.38
2023-05-12T10:43:00.311Z,98320.09
2023-05-12T10:45:26.657Z,98314.00
2023-05-12T10:47:53.095Z,98323.38
2023-05-12T10:50:28.982Z,98322.03
2023-05-12T10:52:56.483Z,98327.13
2023-05-12T10:55:36.801Z,98330.91
2023-05-12T10:58:09.861Z,98322.97
2023-05-12T11:00:44.926Z,98317.00
2023-05-12T11:03:17.398Z,98328.09
2023-05-12T11:05:45.797Z,98327.03
2023-05-12T11:08:14.112Z,98331.22
2023-05-12T11:10:41.983Z,98325.03
2023-05-12T11:13:08.357Z,98317.38
2023-05-12T11:15:34.698Z,98309.59
2023-05-12T11:18:04.395Z,98318.59
2023-05-12T11:20:31.194Z,98332.53
2023-05-12T11:22:57.640Z,98314.75
2023-05-12T11:25:26.951Z,98327.44
2023-05-12T11:27:53.287Z,98321.94
2023-05-12T11:30:19.768Z,98305.81
2023-05-12T11:32:46.335Z,98321.03
2023-05-12T11:35:17.387Z,98326.84
2023-05-12T11:37:44.907Z,98332.44
2023-05-12T11:40:15.110Z,98330.78
2023-05-12T11:42:41.591Z,98332.88
2023-05-12T11:45:19.248Z,98336.38
2023-05-12T11:47:45.845Z,98335.03
2023-05-12T11:50:12.255Z,98333.19
2023-05-12T11:52:39.307Z,98329.69
2023-05-12T11:55:06.131Z,98339.00
2023-05-12T11:57:33.897Z,98338.94
2023-05-12T12:00:05.504Z,98340.00
2023-05-12T12:02:31.891Z,98343.59
2023-05-12T12:04:58.360Z,98343.47
2023-05-12T12:07:29.118Z,98327.72
2023-05-12T12:09:55.610Z,98336.50
2023-05-12T12:12:22.095Z,98340.72
2023-05-12T12:14:49.489Z,98330.69
2023-05-12T12:17:15.817Z,98352.47
2023-05-12T12:19:42.146Z,98352.56
2023-05-12T12:22:08.463Z,98338.44
2023-05-12T12:24:34.811Z,98354.97
2023-05-12T12:27:01.139Z,98358.13
2023-05-12T12:29:27.533Z,98356.63
2023-05-12T12:31:53.913Z,98351.28
2023-05-12T12:34:20.316Z,98352.59
2023-05-12T12:36:46.645Z,98354.84
2023-05-12T12:39:13.002Z,98357.28
2023-05-12T12:41:39.471Z,98347.59
2023-05-12T12:44:05.820Z,98355.41
2023-05-12T12:46:32.188Z,98354.34
2023-05-12T12:48:58.518Z,98356.09
2023-05-12T12:51:28.541Z,98356.78
2023-05-12T12:54:01.646Z,98349.88
2023-05-12T12:56:27.964Z,98340.47
2023-05-12T12:58:54.314Z,98348.69
2023-05-12T13:01:20.739Z,98359.25
2023-05-12T13:03:47.091Z,98339.28
2023-05-12T13:06:13.455Z,98352.69
2023-05-12T13:08:39.809Z,98364.31
2023-05-12T13:11:06.243Z,98359.84
2023-05-12T13:13:32.651Z,98344.88
2023-05-12T13:15:59.069Z,98347.13
2023-05-12T13:18:25.502Z,98356.63
2023-05-12T13:20:51.847Z,98353.44
2023-05-12T13:23:18.177Z,98348.75
2023-05-12T13:25:44.520Z,98351.50
2023-05-12T13:28:10.861Z,98351.66
2023-05-12T13:30:37.337Z,98357.22
2023-05-12T13:33:05.883Z,98351.78
2023-05-12T13:35:32.610Z,98350.03
2023-05-12T13:37:59.003Z,98337.41
2023-05-12T13:40:25.389Z,98356.63
2023-05-12T13:42:51.770Z,98350.06
2023-05-12T13:45:19.554Z,98351.78
2023-05-12T13:47:46.197Z,98355.75
2023-05-12T13:50:12.592Z,98354.06
2023-05-12T13:52:38.945Z,98348.03
2023-05-12T13:55:05.718Z,98346.66
2023-05-12T13:57:32.061Z,98341.19
2023-05-12T13:59:58.403Z,98351.72
2023-05-12T14:02:24.737Z,98342.28
2023-05-12T14:04:51.111Z,98353.28
2023-05-12T14:07:17.448Z,98349.25
2023-05-12T14:09:43.885Z,98357.50
2023-05-12T14:12:10.249Z,98344.59
2023-05-12T14:14:36.752Z,98359.00
2023-05-12T14:17:03.147Z,98361.09
2023-05-12T14:19:29.484Z,98351.84
2023-05-12T14:21:55.817Z,98354.06
2023-05-12T14:24:22.377Z,98364.56
2023-05-12T14:26:48.830Z,98358.84
2023-05-12T14:29:15.242Z,98361.19
2023-05-12T14:31:41.648Z,98360.00
2023-05-12T14:34:08.002Z,98345.13
2023-05-12T14:36:34.339Z,98353.63
2023-05-12T14:39:00.661Z,98351.03
2023-05-12T14:41:27.231Z,98357.19
2023-05-12T14:43:53.584Z,98352.47
2023-05-12T14:46:20.297Z,98363.25
2023-05-12T14:48:46.741Z,98358.44
2023-05-12T14:51:13.132Z,98345.22
2023-05-12T14:53:39.651Z,98352.59
2023-05-12T14:56:06.161Z,98355.50
2023-05-12T14:58:32.488Z,98349.22
2023-05-12T15:00:58.889Z,98352.00
2023-05-12T15:03:25.347Z,98341.22
2023-05-12T15:08:21.037Z,98339.19
2023-05-12T15:10:47.697Z,98342.03
2023-05-12T15:13:14.018Z,98339.69
2023-05-12T15:15:40.345Z,98334.47
2023-05-12T15:18:07.312Z,98347.19
2023-05-12T15:20:34.210Z,98333.63
2023-05-12T15:23:00.590Z,98342.03
2023-05-12T15:25:26.924Z,98355.19
2023-05-12T15:27:53.253Z,98358.50
2023-05-12T15:30:19.612Z,98351.84
2023-05-12T15:32:45.992Z,98368.56
2023-05-12T15:35:13.181Z,98372.44
2023-05-12T15:37:39.520Z,98373.00
2023-05-12T15:40:06.508Z,98381.88
2023-05-12T15:42:33.433Z,98386.28
2023-05-12T15:44:59.916Z,98378.88
2023-05-12T15:47:26.272Z,98390.41
2023-05-12T15:49:52.768Z,98384.47
2023-05-12T15:52:19.116Z,98384.59
2023-05-12T15:54:45.443Z,98375.44
2023-05-12T15:57:11.800Z,98379.19
2023-05-12T15:59:38.175Z,98374.44
2023-05-12T16:02:05.026Z,98363.63
2023-05-12T16:04:31.587Z,98364.47
2023-05-12T16:06:57.946Z,98361.22
2023-05-12T16:09:24.362Z,98353.66
2023-05-12T16:11:50.697Z,98368.44
2023-05-12T16:14:17.111Z,98362.38
2023-05-12T16:16:43.628Z,98359.66
2023-05-12T16:19:10.048Z,98370.41
2023-05-12T16:21:36.450Z,98363.91
2023-05-12T16:24:02.908Z,98371.22
2023-05-12T16:26:29.499Z,98373.13
2023-05-12T16:28:55.855Z,98354.03
2023-05-12T16:31:22.392Z,98369.22
2023-05-12T16:33:48.812Z,98369.94
2023-05-12T16:36:15.832Z,98362.25
2023-05-12T16:38:43.468Z,98362.97
2023-05-12T16:41:09.805Z,98366.75
2023-05-12T16:43:36.206Z,98358.28
2023-05-12T16:46:03.451Z,98358.25
2023-05-12T16:48:29.881Z,98362.44
2023-05-12T16:51:08.921Z,98365.59
2023-05-12T16:53:35.848Z,98382.06
2023-05-12T16:56:02.424Z,98372.78
2023-05-12T16:58:29.568Z,98377.22
2023-05-12T17:00:55.921Z,98382.69
2023-05-12T17:03:22.302Z,98390.34
2023-05-12T17:05:49.009Z,98374.28
2023-05-12T17:08:17.178Z,98369.72
2023-05-12T17:10:45.222Z,98372.84
2023-05-12T17:13:11.686Z,98383.47
2023-05-12T17:15:38.228Z,98375.50
2023-05-12T17:18:04.808Z,98381.19
2023-05-12T17:20:31.759Z,98380.38
2023-05-12T17:22:58.099Z,98380.41
2023-05-12T17:25:24.427Z,98398.44
2023-05-12T17:27:50.764Z,98396.44
2023-05-12T17:30:17.332Z,98394.91
2023-05-12T17:32:43.950Z,98399.53
2023-05-12T17:35:10.561Z,98400.66
2023-05-12T17:37:37.278Z,98412.16
2023-05-12T17:40:04.909Z,98395.72
2023-05-12T17:42:31.300Z,98386.22
2023-05-12T17:44:58.156Z,98390.06
2023-05-12T17:47:25.252Z,98386.69
2023-05-12T17:49:52.020Z,98379.88
2023-05-12T17:52:18.871Z,98401.59
2023-05-12T17:54:45.411Z,98403.50
2023-05-12T17:57:11.783Z,98415.75
2023-05-12T17:59:38.150Z,98406.19
2023-05-12T18:02:04.708Z,98410.41
2023-05-12T18:04:31.117Z,98421.91
2023-05-12T18:06:57.455Z,98421.13
2023-05-12T18:09:23.865Z,98415.47
2023-05-12T18:11:50.208Z,98424.25
2023-05-12T18:14:17.308Z,98422.38
2023-05-12T18:16:43.688Z,98433.06
2023-05-12T18:19:10.139Z,98419.03
2023-05-12T18:21:36.547Z,98415.94
2023-05-12T18:24:02.872Z,98422.94
2023-05-12T18:26:29.534Z,98410.38
2023-05-12T18:28:55.902Z,98414.94
2023-05-12T18:31:22.290Z,98427.56
2023-05-12T18:33:49.561Z,98406.56
2023-05-12T18:36:16.356Z,98423.75
2023-05-12T18:38:43.301Z,98419.53
2023-05-12T18:41:09.840Z,98425.28
2023-05-12T18:43:36.483Z,98440.94
2023-05-12T18:46:03.377Z,98445.16
2023-05-12T18:48:30.036Z,98444.38
2023-05-12T18:50:56.759Z,98433.69
2023-05-12T18:53:23.279Z,98410.00
2023-05-12T18:55:49.672Z,98417.22
2023-05-12T18:58:19.097Z,98425.69
2023-05-12T19:00:45.451Z,98423.34
2023-05-12T19:03:11.877Z,98426.00
2023-05-12T19:05:39.532Z,98443.59
2023-05-12T19:08:06.016Z,98437.50
2023-05-12T19:10:33.391Z,98432.16
2023-05-12T19:12:59.744Z,98438.66
2023-05-12T19:15:26.123Z,98437.50
2023-05-12T19:17:52.531Z,98438.25
2023-05-12T19:20:18.967Z,98442.09
2023-05-12T19:22:45.381Z,98439.81
2023-05-12T19:25:11.897Z,98451.25
2023-05-12T19:27:38.324Z,98442.84
2023-05-12T19:30:05.122Z,98456.59
2023-05-12T19:32:31.971Z,98449.28
2023-05-12T19:35:09.701Z,98475.53
2023-05-12T19:37:37.568Z,98471.38
2023-05-12T19:40:04.532Z,98490.47
2023-05-12T19:42:30.937Z,98467.88
2023-05-12T19:44:57.257Z,98485.50
2023-05-12T19:47:23.623Z,98475.19
2023-05-12T19:49:49.980Z,98490.09
2023-05-12T19:52:16.345Z,98490.84
2023-05-12T19:54:42.796Z,98489.34
2023-05-12T19:57:09.247Z,98494.69
2023-05-12T19:59:35.598Z,98496.19
2023-05-12T20:02:02.040Z,98494.69
2023-05-12T20:04:28.419Z,98483.94
2023-05-12T20:06:54.877Z,98488.50
2023-05-12T20:09:24.245Z,98504.16
2023-05-12T20:11:50.674Z,98496.47
2023-05-12T20:14:17.073Z,98496.13
2023-05-12T20:16:43.523Z,98488.06
2023-05-12T20:19:10.037Z,98492.31
2023-05-12T20:21:37.565Z,98491.09
2023-05-12T20:24:04.173Z,98497.56
2023-05-12T20:26:30.515Z,98484.25
2023-05-12T20:28:57.075Z,98467.75
2023-05-12T20:31:23.486Z,98505.94
2023-05-12T20:33:49.832Z,98504.38
2023-05-12T20:36:16.327Z,98508.91
2023-05-12T20:38:42.717Z,98488.28
2023-05-12T20:41:09.421Z,98509.69
2023-05-12T20:43:35.805Z,98511.59
2023-05-12T20:46:05.702Z,98515.78
2023-05-12T20:48:32.090Z,98508.94
2023-05-12T20:50:58.851Z,98518.06
2023-05-12T20:53:25.183Z,98511.22
2023-05-12T20:55:51.505Z,98516.56
2023-05-12T20:58:17.845Z,98527.19
2023-05-12T21:00:44.165Z,98517.28
2023-05-12T21:03:10.589Z,98521.75
2023-05-12T21:05:36.972Z,98513.00
2023-05-12T21:08:03.436Z,98523.63
2023-05-12T21:10:31.284Z,98525.06
2023-05-12T21:12:57.633Z,98524.31
2023-05-12T21:15:25.921Z,98542.47
2023-05-12T21:17:52.934Z,98525.06
2023-05-12T21:20:19.407Z,98539.47
2023-05-12T21:22:45.865Z,98544.72
2023-05-12T21:25:12.213Z,98544.56
2023-05-12T21:27:39.516Z,98533.41
2023-05-12T21:30:07.701Z,98535.13
2023-05-12T21:32:34.122Z,98542.53
2023-05-12T21:35:00.500Z,98547.50
2023-05-12T21:37:26.841Z,98545.84
2023-05-12T21:39:53.277Z,98549.88
2023-05-12T21:42:19.619Z,98544.03
2023-05-12T21:44:45.968Z,98538.53
2023-05-12T21:47:12.318Z,98543.31
2023-05-12T21:49:38.650Z,98521.63
2023-05-12T21:52:05.227Z,98549.19
2023-05-12T21:54:32.385Z,98537.41
2023-05-12T21:56:59.222Z,98539.47
2023-05-12T21:59:25.600Z,98535.34
2023-05-12T22:01:52.069Z,98550.44
2023-05-12T22:04:18.508Z,98545.22
2023-05-12T22:06:44.839Z,98538.28
2023-05-12T22:09:11.395Z,98552.09
2023-05-12T22:11:37.767Z,98547.91
2023-05-12T22:14:04.167Z,98550.66
2023-05-12T22:16:40.746Z,98549.91
2023-05-12T22:19:08.604Z,98544.38
2023-05-12T22:21:35.048Z,98555.97
2023-05-12T22:24:01.396Z,98557.41
2023-05-12T22:26:27.743Z,98552.78
2023-05-12T22:28:54.093Z,98550.34
2023-05-12T22:31:20.471Z,98556.88
2023-05-12T22:33:46.843Z,98563.41
2023-05-12T22:36:13.215Z,98567.34
2023-05-12T22:38:40.600Z,98563.84
2023-05-12T22:41:06.938Z,98570.22
2023-05-12T22:43:33.288Z,98579.09
2023-05-12T22:45:59.637Z,98569.34
2023-05-12T22:48:25.998Z,98572.81
2023-05-12T22:50:55.450Z,98580.84
2023-05-12T22:53:21.769Z,98575.44
2023-05-12T22:55:48.100Z,98574.09
2023-05-12T22:58:14.428Z,98584.47
2023-05-12T23:00:40.795Z,98590.53
2023-05-12T23:03:07.176Z,98575.22
2023-05-12T23:05:33.586Z,98591.22
2023-05-12T23:07:59.921Z,98595.88
2023-05-12T23:10:26.252Z,98594.84
2023-05-12T23:12:52.580Z,98583.75
2023-05-12T23:15:18.962Z,98595.16
2023-05-12T23:17:45.410Z,98607.31
2023-05-12T23:20:12.204Z,98594.34
2023-05-12T23:22:38.542Z,98591.25
2023-05-12T23:25:05.093Z,98593.38
2023-05-12T23:27:31.432Z,98597.97
2023-05-12T23:29:57.771Z,98586.66
2023-05-12T23:32:24.358Z,98587.56
2023-05-12T23:34:50.808Z,98586.22
2023-05-12T23:37:17.180Z,98580.09
2023-05-12T23:39:43.505Z,98581.34
2023-05-12T23:42:09.822Z,98563.16
2023-05-12T23:44:36.144Z,98580.72
2023-05-12T23:47:02.476Z,98574.66
2023-05-12T23:49:29.159Z,98578.38
2023-05-12T23:51:55.492Z,98583.25
2023-05-12T23:54:21.803Z,98568.75
2023-05-12T23:56:48.185Z,98575.81
2023-05-12T23:59:14.538Z,98579.38
